Time;durP1;ratioP1;P1;durP2;ratioP2;P2;SDS_P1;SDS_P2;PMS_P1;PMS_P2;Temp;Humidity;BMP_temperature;BMP_pressure;BME280_temperature;BME280_humidity;BME280_pressure;Samples;Min_cycle;Max_cycle;Signal;HPM_P1;HPM_P2
2023/10/20 00:00:51;;;;;;;54.00;34.72;;;;;;;13.88;100.00;98316.03;5026939;28;20041;-46
2023/10/20 00:03:17;;;;;;;58.17;36.25;;;;;;;14.14;100.00;98369.31;5029479;28;20046;-47
2023/10/20 00:05:42;;;;;;;53.78;34.72;;;;;;;14.07;100.00;98337.25;5013610;28;20451;-52
2023/10/20 00:08:08;;;;;;;54.45;34.08;;;;;;;13.81;100.00;98279.63;5012790;28;20480;-48
2023/10/20 00:10:36;;;;;;;51.50;33.10;;;;;;;14.19;100.00;98355.69;5013392;28;20119;-49
2023/10/20 00:13:05;;;;;;;50.03;34.17;;;;;;;14.09;100.00;98330.06;5016904;28;20531;-52
2023/10/20 00:15:30;;;;;;;49.67;34.10;;;;;;;14.12;100.00;98334.25;5022811;28;20088;-53
2023/10/20 00:17:56;;;;;;;47.15;33.95;;;;;;;13.81;100.00;98269.06;5018044;28;20029;-52
2023/10/20 00:20:21;;;;;;;52.00;36.58;;;;;;;14.24;100.00;98342.94;5012332;28;20049;-53
2023/10/20 00:22:46;;;;;;;43.83;32.67;;;;;;;14.24;100.00;98335.00;5017193;28;20088;-48
2023/10/20 00:25:12;;;;;;;56.72;36.72;;;;;;;14.19;100.00;98330.06;5015752;28;20044;-50
2023/10/20 00:27:38;;;;;;;44.88;34.05;;;;;;;13.83;100.00;98273.28;5019430;28;20562;-53
2023/10/20 00:30:07;;;;;;;51.10;35.65;;;;;;;13.80;100.00;98264.75;5032139;28;20109;-47
2023/10/20 00:32:33;;;;;;;48.33;35.03;;;;;;;13.86;100.00;98280.94;5017023;28;20144;-51
2023/10/20 00:35:00;;;;;;;49.42;35.08;;;;;;;14.19;100.00;98324.78;5010157;28;20049;-48
2023/10/20 00:37:25;;;;;;;47.15;35.60;;;;;;;13.93;100.00;98279.44;5017737;28;20030;-53
2023/10/20 00:39:51;;;;;;;53.40;35.78;;;;;;;14.30;100.00;98329.16;5020901;28;20038;-50
2023/10/20 00:42:16;;;;;;;49.88;34.90;;;;;;;14.30;100.00;98334.47;5009470;28;20048;-46
2023/10/20 00:44:41;;;;;;;49.92;36.53;;;;;;;13.96;100.00;98258.00;5026308;28;20252;-48
2023/10/20 00:47:09;;;;;;;50.38;35.90;;;;;;;14.31;100.00;98309.66;5018934;28;20029;-49
2023/10/20 00:49:36;;;;;;;48.67;36.50;;;;;;;14.18;100.00;98288.75;5044305;28;20065;-47
2023/10/20 00:52:01;;;;;;;54.10;37.25;;;;;;;13.92;100.00;98238.06;5025285;28;20147;-50
2023/10/20 00:54:27;;;;;;;53.75;37.90;;;;;;;13.53;100.00;98186.03;5022244;28;20034;-48
2023/10/20 00:56:53;;;;;;;53.63;39.42;;;;;;;14.28;100.00;98286.09;5032067;28;20068;-53
2023/10/20 00:59:18;;;;;;;49.28;36.33;;;;;;;14.17;100.00;98272.97;5014425;28;20492;-48
2023/10/20 01:01:44;;;;;;;51.97;36.85;;;;;;;14.23;100.00;98289.16;5027801;28;20036;-48
2023/10/20 01:04:09;;;;;;;52.38;37.80;;;;;;;13.85;100.00;98229.03;5014029;28;20030;-50
2023/10/20 01:06:36;;;;;;;53.95;37.30;;;;;;;13.84;100.00;98210.63;5050734;28;20402;-47
2023/10/20 01:09:01;;;;;;;51.15;37.45;;;;;;;14.20;100.00;98278.84;5016165;28;20056;-46
2023/10/20 01:11:27;;;;;;;52.28;36.70;;;;;;;14.10;100.00;98265.56;5016603;28;20033;-51
2023/10/20 01:13:52;;;;;;;51.35;37.92;;;;;;;14.19;100.00;98298.31;5015337;28;20190;-51
2023/10/20 01:16:18;;;;;;;51.50;37.47;;;;;;;13.75;100.00;98208.78;5016879;28;20107;-50
2023/10/20 01:18:44;;;;;;;54.95;39.03;;;;;;;14.18;100.00;98283.44;5016029;28;20030;-45
2023/10/20 01:21:09;;;;;;;56.20;39.67;;;;;;;14.21;100.00;98277.03;5029024;28;20037;-52
2023/10/20 01:23:35;;;;;;;55.35;38.95;;;;;;;14.20;100.00;98270.91;5018016;28;20034;-50
2023/10/20 01:26:01;;;;;;;60.38;40.83;;;;;;;13.83;100.00;98196.59;5015344;28;20038;-48
2023/10/20 01:28:26;;;;;;;55.95;39.60;;;;;;;14.21;100.00;98262.00;5016435;28;20042;-47
2023/10/20 01:30:52;;;;;;;53.55;38.95;;;;;;;14.20;100.00;98260.31;5016462;28;20045;-51
2023/10/20 01:33:17;;;;;;;56.88;39.53;;;;;;;13.84;100.00;98194.75;5013396;28;20049;-47
2023/10/20 01:35:42;;;;;;;58.13;39.97;;;;;;;14.22;100.00;98265.47;5015846;28;20058;-54
2023/10/20 01:38:08;;;;;;;56.75;38.95;;;;;;;14.21;100.00;98246.13;5020827;28;20038;-47
2023/10/20 01:40:33;;;;;;;53.30;39.40;;;;;;;13.73;100.00;98163.16;5017234;28;20033;-55
2023/10/20 01:42:59;;;;;;;57.28;40.22;;;;;;;14.16;100.00;98235.09;5015395;28;20041;-52
2023/10/20 01:45:24;;;;;;;50.45;38.03;;;;;;;13.81;100.00;98166.78;5016336;28;20628;-51
2023/10/20 01:47:49;;;;;;;54.75;38.40;;;;;;;14.15;100.00;98222.03;5029646;28;20477;-50
2023/10/20 01:50:15;;;;;;;56.92;39.80;;;;;;;14.14;100.00;98213.25;5016435;28;20063;-47
2023/10/20 01:52:42;;;;;;;57.50;38.88;;;;;;;14.12;100.00;98219.66;5011999;28;20419;-50
2023/10/20 01:55:08;;;;;;;55.33;38.90;;;;;;;14.11;100.00;98205.56;5015032;28;20500;-52
2023/10/20 01:57:33;;;;;;;52.67;39.30;;;;;;;13.73;100.00;98142.00;5013797;28;20030;-55
2023/10/20 02:00:01;;;;;;;55.47;39.22;;;;;;;14.10;100.00;98199.44;5013840;28;20034;-50
2023/10/20 02:02:26;;;;;;;48.05;38.25;;;;;;;13.76;100.00;98136.44;5016716;28;20046;-48
2023/10/20 02:04:52;;;;;;;51.67;38.33;;;;;;;13.78;100.00;98145.06;5016855;28;20040;-49
2023/10/20 02:07:17;;;;;;;48.60;37.88;;;;;;;14.11;100.00;98189.72;5015860;28;20464;-47
2023/10/20 02:09:43;;;;;;;49.20;35.75;;;;;;;14.09;100.00;98184.56;5017919;28;20460;-55
2023/10/20 02:12:10;;;;;;;50.90;38.85;;;;;;;13.70;100.00;98119.31;5014923;28;20460;-48
2023/10/20 02:14:35;;;;;;;56.65;38.33;;;;;;;13.98;100.00;98160.03;5014357;28;20949;-48
2023/10/20 02:17:00;;;;;;;54.33;39.05;;;;;;;14.09;100.00;98163.41;5026375;28;20120;-51
2023/10/20 02:19:26;;;;;;;51.45;38.13;;;;;;;14.07;100.00;98153.91;5015185;28;20070;-50
2023/10/20 02:21:52;;;;;;;56.97;39.38;;;;;;;13.95;100.00;98121.44;5016334;28;20034;-47
2023/10/20 02:24:17;;;;;;;50.20;38.50;;;;;;;14.12;100.00;98135.00;5008761;28;20038;-47
2023/10/20 02:26:44;;;;;;;49.97;38.33;;;;;;;13.77;100.00;98064.09;5018691;28;21017;-49
2023/10/20 02:29:11;;;;;;;49.55;37.15;;;;;;;13.73;100.00;98058.25;5017900;28;20365;-49
2023/10/20 02:31:36;;;;;;;48.22;38.30;;;;;;;14.10;100.00;98113.97;5013769;28;20457;-46
2023/10/20 02:34:02;;;;;;;54.25;38.70;;;;;;;14.00;100.00;98107.84;5015381;28;20567;-49
2023/10/20 02:36:27;;;;;;;48.42;39.58;;;;;;;14.13;100.00;98134.03;5013427;28;20045;-51
2023/10/20 02:38:52;;;;;;;56.72;39.75;;;;;;;13.73;100.00;98060.03;5029628;28;20045;-48
2023/10/20 02:41:19;;;;;;;49.55;40.08;;;;;;;14.16;100.00;98123.16;5013594;28;20065;-50
2023/10/20 02:43:44;;;;;;;52.17;40.58;;;;;;;13.72;100.00;98051.28;5046237;28;20037;-48
2023/10/20 02:46:12;;;;;;;52.50;39.70;;;;;;;13.78;100.00;98060.47;5010296;28;20029;-48
2023/10/20 02:48:37;;;;;;;50.55;39.72;;;;;;;14.16;100.00;98118.69;5015773;28;20061;-50
2023/10/20 02:51:13;;;;;;;53.20;39.60;;;;;;;13.72;100.00;98026.69;5030050;28;20476;-49
2023/10/20 02:53:39;;;;;;;53.83;40.13;;;;;;;14.06;100.00;98083.50;5012360;28;20092;-49
2023/10/20 02:56:19;;;;;;;55.70;42.30;;;;;;;14.10;100.00;98088.34;5016277;28;20034;-49
2023/10/20 02:58:46;;;;;;;55.90;42.45;;;;;;;13.12;100.00;97917.53;5015114;28;20077;-47
2023/10/20 03:01:17;;;;;;;66.28;47.55;;;;;;;13.76;100.00;98039.47;5032938;28;20491;-52
2023/10/20 03:03:43;;;;;;;66.55;47.92;;;;;;;14.04;100.00;98091.53;5014568;28;20419;-49
2023/10/20 03:06:09;;;;;;;73.20;49.63;;;;;;;14.06;100.00;98083.50;5043872;28;20688;-54
2023/10/20 03:08:36;;;;;;;68.72;47.05;;;;;;;14.00;100.00;98086.69;5029481;28;20026;-53
2023/10/20 03:11:04;;;;;;;71.90;48.08;;;;;;;13.95;100.00;98083.63;5027323;28;20393;-50
2023/10/20 03:13:29;;;;;;;68.38;46.80;;;;;;;13.78;100.00;98074.53;5015711;28;20391;-54
2023/10/20 03:15:55;;;;;;;72.28;48.22;;;;;;;13.56;100.00;98024.56;5013892;28;20113;-51
2023/10/20 03:18:20;;;;;;;72.70;47.42;;;;;;;13.72;100.00;98051.28;5017515;28;20417;-50
2023/10/20 03:20:47;;;;;;;75.20;48.08;;;;;;;13.49;100.00;98003.09;5012576;28;20488;-50
2023/10/20 03:23:14;;;;;;;73.60;46.55;;;;;;;13.82;100.00;98064.53;5028130;28;20041;-53
2023/10/20 03:25:40;;;;;;;75.15;46.95;;;;;;;13.77;100.00;98072.88;5028032;28;20033;-50
2023/10/20 03:28:06;;;;;;;73.53;48.35;;;;;;;13.38;100.00;97997.09;5031259;28;20064;-48
2023/10/20 03:30:38;;;;;;;69.45;46.17;;;;;;;13.66;100.00;98054.47;5026256;28;20056;-47
2023/10/20 03:33:04;;;;;;;79.25;48.50;;;;;;;13.71;100.00;98059.34;5036941;28;20487;-51
2023/10/20 03:35:30;;;;;;;69.22;46.63;;;;;;;13.64;100.00;98047.66;5018614;28;20084;-47
2023/10/20 03:37:58;;;;;;;70.43;45.45;;;;;;;13.68;100.00;98055.19;5028958;28;20029;-48
2023/10/20 03:40:30;;;;;;;73.85;46.30;;;;;;;13.28;100.00;97993.63;5017329;28;20124;-54
2023/10/20 03:42:57;;;;;;;71.22;46.35;;;;;;;13.47;100.00;98035.94;5023056;28;20042;-49
2023/10/20 03:45:23;;;;;;;77.32;45.38;;;;;;;13.20;100.00;97994.28;5025658;28;20041;-50
2023/10/20 03:47:50;;;;;;;75.47;45.83;;;;;;;13.53;100.00;98054.72;5018679;28;20065;-48
2023/10/20 03:50:18;;;;;;;82.47;47.55;;;;;;;13.52;100.00;98047.75;5014321;28;20046;-50
2023/10/20 03:52:46;;;;;;;77.03;45.33;;;;;;;13.43;100.00;98035.34;5011795;28;20077;-46
2023/10/20 03:55:15;;;;;;;73.97;45.03;;;;;;;13.40;100.00;98025.06;5029144;28;20044;-51
2023/10/20 03:57:41;;;;;;;77.03;45.67;;;;;;;13.46;100.00;98026.31;5012804;28;20037;-54
2023/10/20 04:00:29;;;;;;;76.78;44.30;;;;;;;12.99;100.00;97956.50;5029748;28;20034;-48
2023/10/20 04:02:56;;;;;;;70.63;44.58;;;;;;;13.31;100.00;98001.28;5009832;28;20089;-50
2023/10/20 04:05:21;;;;;;;71.25;42.15;;;;;;;13.33;100.00;98009.91;5028621;28;20045;-53
2023/10/20 04:07:47;;;;;;;72.53;44.28;;;;;;;13.23;100.00;98015.13;5014992;28;20038;-52
2023/10/20 04:10:12;;;;;;;72.78;42.70;;;;;;;13.13;100.00;98010.81;5014610;28;20493;-51
2023/10/20 04:12:44;;;;;;;73.50;43.75;;;;;;;13.11;100.00;98005.66;5027800;28;20118;-47
2023/10/20 04:15:14;;;;;;;66.85;41.28;;;;;;;12.62;100.00;97936.94;5011610;28;20044;-49
2023/10/20 04:17:40;;;;;;;71.20;43.13;;;;;;;12.57;100.00;97934.69;5012326;28;20037;-47
2023/10/20 04:20:07;;;;;;;74.10;41.85;;;;;;;12.78;100.00;97955.75;5015815;28;20071;-50
2023/10/20 04:22:32;;;;;;;75.60;43.15;;;;;;;12.50;100.00;97917.72;5009600;28;20069;-49
2023/10/20 04:24:58;;;;;;;73.95;41.42;;;;;;;12.78;100.00;97990.88;5009236;28;20556;-49
2023/10/20 05:08:05;;;;;;;62.58;37.45;;;;;;;11.80;100.00;97880.69;5019715;28;20061;-53
2023/10/20 05:10:31;;;;;;;64.95;37.13;;;;;;;12.14;100.00;97936.69;5029117;28;20038;-50
2023/10/20 05:12:56;;;;;;;62.95;36.25;;;;;;;11.62;100.00;97854.03;5016924;28;20132;-55
2023/10/20 05:15:21;;;;;;;63.75;36.67;;;;;;;11.71;100.00;97855.94;5015068;28;20528;-47
2023/10/20 05:17:50;;;;;;;62.70;37.65;;;;;;;12.03;100.00;97920.91;5028719;28;21431;-52
2023/10/20 05:20:19;;;;;;;70.25;37.20;;;;;;;12.00;100.00;97908.84;5029139;28;20127;-50
2023/10/20 05:22:46;;;;;;;59.10;35.58;;;;;;;11.55;100.00;97826.56;5017069;28;20099;-46
2023/10/20 05:25:14;;;;;;;58.08;35.78;;;;;;;12.00;100.00;97898.28;5013487;28;20541;-49
2023/10/20 05:27:40;;;;;;;60.28;37.92;;;;;;;11.73;100.00;97848.75;5017556;28;20034;-54
2023/10/20 05:30:07;;;;;;;58.30;36.08;;;;;;;11.96;100.00;97899.53;5014237;28;20044;-48
2023/10/20 05:32:33;;;;;;;58.60;35.83;;;;;;;11.91;100.00;97888.53;5009630;28;20086;-53
2023/10/20 05:34:59;;;;;;;67.07;38.63;;;;;;;11.75;100.00;97878.44;5014410;28;20605;-49
2023/10/20 05:37:24;;;;;;;59.75;36.10;;;;;;;11.81;100.00;97899.03;5027586;28;20044;-49
2023/10/20 05:39:50;;;;;;;66.18;37.45;;;;;;;11.41;100.00;97837.41;5029951;28;20033;-53
2023/10/20 05:42:16;;;;;;;60.67;36.25;;;;;;;11.77;100.00;97896.75;5017520;28;20073;-55
2023/10/20 05:45:03;;;;;;;62.05;36.88;;;;;;;11.72;100.00;97898.94;5017726;28;20041;-46
2023/10/20 05:47:28;;;;;;;58.10;34.70;;;;;;;11.40;100.00;97846.28;5026858;28;20064;-52
2023/10/20 05:49:55;;;;;;;54.28;34.63;;;;;;;11.43;100.00;97843.38;5014250;28;20124;-49
2023/10/20 05:52:21;;;;;;;61.85;35.42;;;;;;;11.71;100.00;97892.00;5029638;28;20026;-52
2023/10/20 05:54:46;;;;;;;60.42;35.20;;;;;;;11.69;100.00;97894.78;5018946;28;20103;-48
2023/10/20 05:57:11;;;;;;;60.65;34.90;;;;;;;11.69;100.00;97884.22;5018625;28;20045;-46
2023/10/20 05:59:38;;;;;;;59.63;34.90;;;;;;;11.25;100.00;97811.50;5014467;28;20114;-50
2023/10/20 06:02:03;;;;;;;63.33;35.97;;;;;;;11.68;100.00;97881.69;5015162;28;20408;-48
2023/10/20 06:04:29;;;;;;;60.67;35.78;;;;;;;11.18;100.00;97802.44;5016711;28;20049;-50
2023/10/20 06:06:54;;;;;;;59.60;36.28;;;;;;;11.41;100.00;97855.00;5029124;28;20034;-50
2023/10/20 06:09:19;;;;;;;59.30;35.08;;;;;;;11.50;100.00;97883.22;5029964;28;20034;-47
2023/10/20 06:11:45;;;;;;;63.20;35.67;;;;;;;11.48;100.00;97882.50;5002142;28;20045;-48
2023/10/20 06:14:10;;;;;;;62.00;36.22;;;;;;;11.47;100.00;97867.69;5015893;28;20073;-47
2023/10/20 06:16:36;;;;;;;62.95;37.28;;;;;;;11.39;100.00;97870.09;5013519;28;20040;-51
2023/10/20 06:19:01;;;;;;;58.28;35.47;;;;;;;11.03;100.00;97810.78;5031220;28;20408;-49
2023/10/20 06:21:28;;;;;;;57.55;34.08;;;;;;;11.35;100.00;97885.31;5030543;28;20038;-47
2023/10/20 06:23:53;;;;;;;57.95;34.67;;;;;;;11.27;100.00;97882.47;5031095;28;20037;-51
2023/10/20 06:26:19;;;;;;;59.03;35.08;;;;;;;11.26;100.00;97889.53;5016516;28;20511;-48
2023/10/20 06:28:44;;;;;;;58.30;34.63;;;;;;;11.29;100.00;97893.72;5017562;28;20107;-50
2023/10/20 06:34:40;;;;;;;54.53;32.55;;;;;;;11.10;100.00;97856.69;5014953;28;20677;-52
2023/10/20 06:36:47;;;;;;;54.22;33.03;;;;;;;11.30;100.00;97884.84;5012676;28;20042;-47
2023/10/20 06:39:13;;;;;;;54.40;31.75;;;;;;;11.30;100.00;97895.38;5014519;28;20034;-50
2023/10/20 06:41:39;;;;;;;55.50;33.13;;;;;;;11.23;100.00;97862.63;5013135;28;20052;-54
2023/10/20 06:44:04;;;;;;;45.50;28.80;;;;;;;11.24;100.00;97857.22;5014486;28;20397;-49
2023/10/20 06:46:30;;;;;;;47.90;29.00;;;;;;;11.15;100.00;97865.03;5018843;28;20401;-47
2023/10/20 06:48:56;;;;;;;48.83;29.40;;;;;;;11.22;100.00;97866.22;5024569;28;20026;-49
2023/10/20 06:51:21;;;;;;;44.70;27.98;;;;;;;11.15;100.00;97872.91;5011636;28;20044;-47
2023/10/20 06:53:47;;;;;;;46.88;27.33;;;;;;;11.26;100.00;97878.19;5015602;28;20037;-46
2023/10/20 06:56:12;;;;;;;40.80;27.27;;;;;;;10.93;100.00;97825.63;5027209;28;20038;-55
2023/10/20 06:58:37;;;;;;;39.10;24.75;;;;;;;11.18;100.00;97864.78;5008545;28;20030;-54
2023/10/20 07:01:06;;;;;;;42.80;25.25;;;;;;;11.06;100.00;97863.16;5023006;28;20040;-49
2023/10/20 07:03:32;;;;;;;36.95;22.35;;;;;;;11.12;100.00;97881.09;5030820;28;20120;-46
2023/10/20 07:05:59;;;;;;;36.97;23.65;;;;;;;10.98;100.00;97862.94;5021787;28;20033;-48
2023/10/20 07:08:24;;;;;;;33.88;21.15;;;;;;;11.10;100.00;97877.72;5012092;28;20202;-49
2023/10/20 07:10:50;;;;;;;34.22;20.85;;;;;;;10.89;100.00;97850.50;5016018;28;20033;-50
2023/10/20 07:13:17;;;;;;;36.63;21.00;;;;;;;10.99;100.00;97854.09;5008069;28;20081;-48
2023/10/20 07:15:43;;;;;;;29.42;19.10;;;;;;;10.60;100.00;97808.97;5046207;28;20037;-52
2023/10/20 07:18:11;;;;;;;26.15;18.08;;;;;;;10.62;100.00;97809.69;5013087;28;20037;-50
2023/10/20 07:20:38;;;;;;;27.73;18.30;;;;;;;10.94;100.00;97858.91;5012077;28;20033;-52
2023/10/20 07:23:08;;;;;;;27.92;18.60;;;;;;;10.89;100.00;97851.34;5021701;28;20046;-47
2023/10/20 07:25:33;;;;;;;28.23;17.58;;;;;;;10.88;100.00;97849.69;5026623;28;20069;-50
2023/10/20 07:27:59;;;;;;;25.60;16.60;;;;;;;10.34;100.00;97776.03;5027050;28;20061;-53
2023/10/20 07:30:24;;;;;;;26.30;16.60;;;;;;;10.95;100.00;97864.03;5011731;28;20037;-46
2023/10/20 07:32:51;;;;;;;28.92;17.63;;;;;;;10.42;100.00;97776.25;4994081;28;20101;-47
2023/10/20 07:35:17;;;;;;;24.67;16.63;;;;;;;10.76;100.00;97863.00;5017499;28;20046;-52
2023/10/20 07:37:43;;;;;;;20.77;14.50;;;;;;;10.80;100.00;97856.53;5016174;28;20040;-50
2023/10/20 07:40:09;;;;;;;23.15;15.63;;;;;;;10.85;100.00;97863.09;5016491;28;20038;-49
2023/10/20 07:42:35;;;;;;;23.80;14.38;;;;;;;10.36;100.00;97779.38;5015895;28;20046;-50
2023/10/20 07:45:00;;;;;;;25.85;16.20;;;;;;;10.42;100.00;97785.97;5012152;28;20469;-50
2023/10/20 07:47:27;;;;;;;24.17;15.93;;;;;;;9.44;100.00;97656.22;5009334;28;20164;-47
2023/10/20 07:49:52;;;;;;;21.67;14.57;;;;;;;10.61;100.00;97842.22;5027332;28;20030;-49
2023/10/20 07:52:17;;;;;;;26.48;15.88;;;;;;;10.48;100.00;97815.22;5023992;28;20057;-51
2023/10/20 07:54:43;;;;;;;21.58;14.38;;;;;;;10.79;100.00;97841.72;5023849;28;20088;-47
2023/10/20 07:57:10;;;;;;;24.02;14.52;;;;;;;10.67;100.00;97839.09;5032177;28;20038;-48
2023/10/20 07:59:35;;;;;;;21.17;13.80;;;;;;;10.31;100.00;97772.81;5029085;28;20026;-49
2023/10/20 08:02:00;;;;;;;24.55;14.27;;;;;;;10.44;100.00;97792.78;5017996;28;20033;-49
2023/10/20 08:04:26;;;;;;;20.23;14.13;;;;;;;10.37;100.00;97786.31;5026733;28;20400;-48
2023/10/20 08:06:54;;;;;;;25.40;14.18;;;;;;;10.50;100.00;97815.94;5017959;28;20500;-46
2023/10/20 08:09:20;;;;;;;22.13;14.05;;;;;;;10.32;100.00;97771.88;5014447;28;20045;-47
2023/10/20 08:11:45;;;;;;;19.75;14.30;;;;;;;10.57;100.00;97825.00;5011276;28;20034;-51
2023/10/20 08:14:11;;;;;;;25.45;16.02;;;;;;;10.08;100.00;97750.97;5020735;28;20083;-46
2023/10/20 08:16:37;;;;;;;22.88;15.50;;;;;;;10.49;100.00;97806.38;5021536;28;20026;-47
2023/10/20 08:19:02;;;;;;;25.90;16.17;;;;;;;10.50;100.00;97794.91;5015133;28;20103;-51
2023/10/20 08:21:29;;;;;;;22.33;15.70;;;;;;;10.47;100.00;97810.09;5015170;28;20037;-50
2023/10/20 08:23:57;;;;;;;23.80;15.25;;;;;;;10.44;100.00;97805.06;5011794;28;20541;-51
2023/10/20 08:26:23;;;;;;;25.98;14.70;;;;;;;10.01;100.00;97741.91;5022022;28;20128;-49
2023/10/20 08:28:49;;;;;;;22.40;14.80;;;;;;;10.35;100.00;97771.63;5007855;28;20517;-51
2023/10/20 08:31:17;;;;;;;23.20;13.90;;;;;;;10.20;100.00;97747.41;5006602;28;20045;-45
2023/10/20 08:33:43;;;;;;;27.52;15.32;;;;;;;10.14;100.00;97742.63;5017528;28;20069;-50
2023/10/20 08:36:15;;;;;;;26.35;15.15;;;;;;;10.15;100.00;97747.78;5014146;28;20098;-46
2023/10/20 08:38:43;;;;;;;23.17;13.98;;;;;;;10.42;100.00;97801.75;5034529;28;20029;-49
2023/10/20 08:41:13;;;;;;;22.15;13.75;;;;;;;10.30;100.00;97769.38;5017466;28;20038;-51
2023/10/20 08:43:39;;;;;;;22.60;13.90;;;;;;;10.42;100.00;97802.56;5013525;28;20133;-49
2023/10/20 08:46:05;;;;;;;17.98;12.50;;;;;;;10.28;100.00;97794.94;5015194;28;20287;-49
2023/10/20 08:48:31;;;;;;;22.13;14.27;;;;;;;10.01;100.00;97741.91;5019168;28;20083;-47
2023/10/20 08:50:59;;;;;;;20.45;12.68;;;;;;;10.36;100.00;97786.44;5026749;28;20113;-48
2023/10/20 08:53:26;;;;;;;18.98;12.23;;;;;;;10.46;100.00;97811.03;5032971;28;20415;-48
2023/10/20 08:55:51;;;;;;;20.45;11.25;;;;;;;10.17;100.00;97763.41;5026934;28;20026;-50
2023/10/20 08:58:17;;;;;;;15.88;10.27;;;;;;;10.08;100.00;97754.44;5022780;28;20034;-49
2023/10/20 09:00:43;;;;;;;16.27;10.30;;;;;;;10.02;100.00;97749.66;5023115;28;20048;-45
2023/10/20 09:03:09;;;;;;;14.98;10.15;;;;;;;10.21;100.00;97796.38;5030530;28;20038;-50
2023/10/20 09:05:34;;;;;;;15.23;9.90;;;;;;;9.89;100.00;97740.25;5019034;28;20044;-51
2023/10/20 09:08:00;;;;;;;15.95;9.65;;;;;;;9.89;100.00;97741.06;5028395;28;20463;-53
2023/10/20 09:10:26;;;;;;;14.00;10.15;;;;;;;10.24;100.00;97817.19;5024643;28;20025;-49
2023/10/20 09:12:52;;;;;;;13.85;9.38;;;;;;;10.28;100.00;97805.44;5035495;28;20025;-50
2023/10/20 09:15:17;;;;;;;11.60;8.65;;;;;;;10.07;100.00;97776.41;5030622;28;20030;-52
2023/10/20 09:17:44;;;;;;;12.80;9.20;;;;;;;10.25;100.00;97795.16;5031663;28;20112;-46
2023/10/20 09:20:11;;;;;;;12.52;8.88;;;;;;;10.13;100.00;97786.47;5015068;28;20491;-50
2023/10/20 09:22:37;;;;;;;13.98;9.27;;;;;;;10.22;100.00;97811.19;5026382;28;20033;-49
2023/10/20 09:25:11;;;;;;;11.52;7.88;;;;;;;10.16;100.00;97820.38;5036082;28;20046;-50
2023/10/20 09:27:37;;;;;;;10.60;7.63;;;;;;;10.07;100.00;97813.19;5017464;28;20030;-50
2023/10/20 09:30:08;;;;;;;9.98;7.32;;;;;;;9.61;100.00;97728.41;5008434;28;20088;-50
2023/10/20 09:32:40;;;;;;;10.25;7.80;;;;;;;9.87;100.00;97757.88;5024884;28;20095;-53
2023/10/20 09:35:05;;;;;;;10.68;7.65;;;;;;;10.07;100.00;97789.53;5018579;28;20046;-50
2023/10/20 09:37:31;;;;;;;8.73;7.18;;;;;;;9.91;100.00;97759.34;5022041;28;20048;-55
2023/10/20 09:40:05;;;;;;;11.02;7.43;;;;;;;9.76;100.00;97750.84;5013573;28;20022;-49
2023/10/20 09:42:52;;;;;;;9.35;7.20;;;;;;;9.66;100.00;97728.88;5023546;28;20033;-51
2023/10/20 09:45:21;;;;;;;8.75;6.75;;;;;;;9.66;100.00;97717.56;5030161;28;20052;-51
2023/10/20 09:47:52;;;;;;;8.20;6.13;;;;;;;9.77;100.00;97744.66;5007067;28;20112;-52
2023/10/20 09:50:19;;;;;;;7.57;5.97;;;;;;;9.63;100.00;97726.50;5038988;28;20033;-49
2023/10/20 09:52:45;;;;;;;7.82;5.95;;;;;;;10.03;100.00;97780.25;5042401;28;20044;-52
2023/10/20 09:55:11;;;;;;;7.82;6.05;;;;;;;10.04;100.00;97781.09;5032634;28;20033;-55
2023/10/20 09:57:36;;;;;;;15.43;5.72;;;;;;;9.97;100.00;97774.63;5011978;28;20036;-50
2023/10/20 10:00:07;;;;;;;6.88;5.00;;;;;;;9.94;100.00;97761.72;5021724;28;20029;-49
2023/10/20 10:02:33;;;;;;;5.70;4.65;;;;;;;9.58;100.00;97699.75;5015595;28;20128;-50
2023/10/20 10:04:59;;;;;;;5.22;4.47;;;;;;;9.82;100.00;97747.75;5015243;28;20588;-50
2023/10/20 10:07:31;;;;;;;8.80;4.78;;;;;;;9.85;100.00;97750.16;5012144;28;20096;-50
2023/10/20 10:09:57;;;;;;;17.05;12.52;;;;;;;9.89;100.00;97740.25;5014063;28;20049;-49
2023/10/20 10:12:25;;;;;;;5.18;4.20;;;;;;;9.53;100.00;97699.28;5015946;28;20352;-51
2023/10/20 10:14:58;;;;;;;7.18;4.25;;;;;;;9.91;100.00;97769.84;5011715;28;20054;-52
2023/10/20 10:17:23;;;;;;;7.03;4.80;;;;;;;9.44;100.00;97687.72;5030726;28;20038;-49
2023/10/20 10:19:50;;;;;;;4.97;4.20;;;;;;;9.88;100.00;97768.28;5011606;28;20037;-49
2023/10/20 10:22:16;;;;;;;6.05;4.30;;;;;;;9.87;100.00;97760.50;5015149;28;20096;-52
2023/10/20 10:24:48;;;;;;;4.80;4.30;;;;;;;9.86;100.00;97745.72;5015874;28;20041;-53
2023/10/20 10:27:16;;;;;;;4.85;4.30;;;;;;;9.86;100.00;97750.97;5017937;28;20037;-54
2023/10/20 10:29:48;;;;;;;6.22;3.80;;;;;;;9.92;100.00;97761.00;5008030;28;20048;-51
2023/10/20 10:32:13;;;;;;;11.45;6.70;;;;;;;9.64;100.00;97712.41;5014713;28;20116;-52
2023/10/20 10:34:47;;;;;;;6.00;3.78;;;;;;;9.58;100.00;97705.84;5016163;28;20132;-54
2023/10/20 10:37:14;;;;;;;4.43;4.03;;;;;;;9.83;100.00;97743.34;5010111;28;20111;-53
2023/10/20 10:39:40;;;;;;;4.50;3.55;;;;;;;9.12;100.00;97641.28;5013554;28;20095;-50
2023/10/20 10:42:05;;;;;;;4.28;3.47;;;;;;;9.89;100.00;97753.38;5016160;28;20038;-53
2023/10/20 10:44:35;;;;;;;4.82;3.38;;;;;;;9.90;100.00;97744.50;5016885;28;20505;-54
2023/10/20 10:47:03;;;;;;;3.78;3.33;;;;;;;9.92;100.00;97734.75;5028431;28;20068;-51
2023/10/20 10:49:32;;;;;;;4.03;2.80;;;;;;;9.96;100.00;97731.75;5044267;28;20026;-53
2023/10/20 10:51:58;;;;;;;3.13;2.70;;;;;;;9.68;100.00;97681.50;5028525;28;20052;-50
2023/10/20 10:54:24;;;;;;;3.17;2.58;;;;;;;10.00;100.00;97742.84;5005671;28;20030;-49
2023/10/20 10:56:49;;;;;;;2.15;1.90;;;;;;;9.98;100.00;97719.31;5041259;28;20026;-53
2023/10/20 10:59:15;;;;;;;2.20;2.03;;;;;;;9.94;100.00;97714.44;5031237;28;20032;-50
2023/10/20 11:01:41;;;;;;;2.13;1.95;;;;;;;9.76;100.00;97676.47;5041656;28;20026;-52
2023/10/20 11:04:08;;;;;;;3.03;2.22;;;;;;;9.55;100.00;97631.72;5022896;28;20108;-49
2023/10/20 11:06:37;;;;;;;3.28;1.88;;;;;;;9.57;100.00;97640.34;5031944;28;20540;-53
2023/10/20 11:09:05;;;;;;;1.88;1.63;;;;;;;9.86;100.00;97694.03;5047851;28;20053;-48
2023/10/20 11:11:31;;;;;;;2.30;2.10;;;;;;;9.73;100.00;97676.72;5030287;28;20065;-52
2023/10/20 11:13:57;;;;;;;2.38;2.03;;;;;;;9.59;100.00;97625.28;5032548;28;20480;-53
2023/10/20 11:16:23;;;;;;;2.33;1.90;;;;;;;10.01;100.00;97692.78;5047800;28;20124;-50
2023/10/20 11:18:48;;;;;;;1.70;1.60;;;;;;;10.01;100.00;97682.28;5032992;28;20047;-52
2023/10/20 11:21:13;;;;;;;2.60;2.08;;;;;;;10.02;100.00;97681.34;5032847;28;20041;-51
2023/10/20 11:23:39;;;;;;;2.63;1.85;;;;;;;9.97;100.00;97669.53;5032341;28;20412;-51
2023/10/20 11:26:17;;;;;;;2.10;1.60;;;;;;;9.68;100.00;97624.56;5032556;28;20029;-49
2023/10/20 11:28:42;;;;;;;1.77;1.55;;;;;;;9.35;100.00;97591.28;5032721;28;20124;-49
2023/10/20 11:31:08;;;;;;;1.60;1.50;;;;;;;9.86;100.00;97662.50;5046847;28;20558;-52
2023/10/20 11:33:34;;;;;;;1.98;1.60;;;;;;;9.91;100.00;97649.81;5032398;28;20037;-46
2023/10/20 11:36:00;;;;;;;1.50;1.40;;;;;;;9.96;100.00;97662.59;5032662;28;20081;-48
2023/10/20 11:38:27;;;;;;;1.77;1.40;;;;;;;9.95;100.00;97661.75;5032291;28;20068;-49
2023/10/20 11:40:53;;;;;;;1.50;1.40;;;;;;;9.91;100.00;97641.09;5047393;28;20060;-49
2023/10/20 11:43:18;;;;;;;1.90;1.40;;;;;;;9.95;100.00;97640.72;5032312;28;20477;-50
2023/10/20 11:45:43;;;;;;;2.58;1.40;;;;;;;9.71;100.00;97615.59;5032142;28;20103;-53
2023/10/20 11:48:09;;;;;;;1.67;1.58;;;;;;;10.05;100.00;97660.06;5032421;28;20104;-50
2023/10/20 11:50:34;;;;;;;2.08;1.10;;;;;;;9.85;100.00;97625.84;5047883;28;20060;-50
2023/10/20 11:53:00;;;;;;;1.27;1.17;;;;;;;9.94;100.00;97632.97;5032441;28;20033;-52
2023/10/20 11:55:25;;;;;;;1.30;1.20;;;;;;;10.07;100.00;97647.63;5047788;28;20037;-53